createdAt,value
2022-11-27T00:01:21.410Z,63.53
2022-11-27T00:03:49.072Z,65.33
2022-11-27T00:06:19.636Z,67.17
2022-11-27T00:08:47.748Z,69.53
2022-11-27T00:11:21.294Z,81.87
2022-11-27T00:13:50.067Z,80.53
2022-11-27T00:16:18.453Z,79.23
2022-11-27T00:18:46.205Z,70.63
2022-11-27T00:21:22.740Z,77.13
2022-11-27T00:23:51.093Z,70.67
2022-11-27T00:26:18.501Z,68.00
2022-11-27T00:28:45.777Z,73.17
2022-11-27T00:31:29.302Z,66.07
2022-11-27T00:33:58.466Z,68.50
2022-11-27T00:36:27.122Z,63.47
2022-11-27T00:38:54.735Z,62.63
2022-11-27T00:41:28.058Z,68.50
2022-11-27T00:43:55.684Z,60.83
2022-11-27T00:46:28.740Z,57.33
2022-11-27T00:49:01.156Z,67.80
2022-11-27T00:51:29.638Z,60.27
2022-11-27T00:53:57.085Z,74.33
2022-11-27T00:56:30.690Z,64.83
2022-11-27T00:58:58.195Z,62.87
2022-11-27T01:01:27.676Z,66.17
2022-11-27T01:03:59.220Z,64.20
2022-11-27T01:06:27.434Z,70.37
2022-11-27T01:08:54.912Z,64.30
2022-11-27T01:11:26.034Z,65.43
2022-11-27T01:13:53.617Z,60.03
2022-11-27T01:16:24.496Z,55.33
2022-11-27T01:18:54.346Z,56.33
2022-11-27T01:21:22.348Z,55.03
2022-11-27T01:23:51.658Z,57.43
2022-11-27T01:26:20.205Z,55.03
2022-11-27T01:28:47.726Z,50.63
2022-11-27T01:31:34.817Z,52.57
2022-11-27T01:34:07.250Z,54.33
2022-11-27T01:36:35.284Z,59.07
2022-11-27T01:39:03.084Z,54.37
2022-11-27T01:41:40.141Z,53.53
2022-11-27T01:44:50.708Z,50.93
2022-11-27T01:47:28.046Z,49.63
2022-11-27T01:50:01.052Z,51.93
2022-11-27T01:52:34.288Z,48.63
2022-11-27T01:55:20.626Z,48.10
2022-11-27T01:57:56.834Z,49.07
2022-11-27T02:00:24.948Z,50.70
2022-11-27T02:02:52.811Z,63.13
2022-11-27T02:05:23.220Z,66.53
2022-11-27T02:07:52.674Z,61.13
2022-11-27T02:10:20.171Z,57.10
2022-11-27T02:12:50.989Z,60.53
2022-11-27T02:15:44.020Z,58.93
2022-11-27T02:18:25.639Z,57.47
2022-11-27T02:21:11.113Z,57.70
2022-11-27T02:23:54.025Z,58.47
2022-11-27T02:26:39.505Z,54.83
2022-11-27T02:29:14.666Z,57.37
2022-11-27T02:31:54.336Z,56.63
2022-11-27T02:34:46.131Z,53.33
2022-11-27T02:37:35.403Z,53.47
2022-11-27T02:40:23.404Z,63.33
2022-11-27T02:43:03.547Z,59.50
2022-11-27T02:45:38.063Z,71.87
2022-11-27T02:48:06.850Z,128.60
2022-11-27T02:50:37.559Z,101.23
2022-11-27T02:53:28.008Z,76.23
2022-11-27T02:55:58.374Z,84.87
2022-11-27T02:58:28.720Z,92.43
2022-11-27T03:00:57.951Z,73.30
2022-11-27T03:03:28.963Z,92.17
2022-11-27T03:06:02.042Z,66.97
2022-11-27T03:08:38.481Z,67.23
2022-11-27T03:11:09.450Z,59.70
2022-11-27T03:13:48.884Z,58.93
2022-11-27T03:16:25.715Z,80.67
2022-11-27T03:18:52.945Z,53.33
2022-11-27T03:21:33.680Z,51.53
2022-11-27T03:24:01.264Z,52.27
2022-11-27T03:26:28.712Z,49.53
2022-11-27T03:28:58.559Z,52.13
2022-11-27T03:31:27.177Z,48.83
2022-11-27T03:33:55.059Z,51.20
2022-11-27T03:36:22.560Z,53.57
2022-11-27T03:38:51.797Z,53.10
2022-11-27T03:41:22.051Z,86.83
2022-11-27T03:44:26.372Z,71.73
2022-11-27T03:47:06.074Z,63.80
2022-11-27T03:49:50.250Z,68.93
2022-11-27T03:52:26.716Z,68.47
2022-11-27T03:55:11.433Z,70.17
2022-11-27T03:57:45.511Z,71.97
2022-11-27T04:00:13.297Z,71.43
2022-11-27T04:02:47.512Z,66.23
2022-11-27T04:05:15.376Z,65.40
2022-11-27T04:07:43.414Z,67.00
2022-11-27T04:10:12.394Z,66.30
2022-11-27T04:12:39.811Z,64.33
2022-11-27T04:15:07.729Z,61.37
2022-11-27T04:17:35.435Z,58.63
2022-11-27T04:20:02.700Z,62.00
2022-11-27T04:22:30.370Z,56.17
2022-11-27T04:24:57.514Z,68.20
2022-11-27T04:27:24.658Z,66.97
2022-11-27T04:29:51.851Z,54.27
2022-11-27T04:32:19.029Z,79.90
2022-11-27T04:34:46.262Z,67.70
2022-11-27T04:37:13.701Z,96.33
2022-11-27T04:39:40.868Z,88.53
2022-11-27T04:42:08.602Z,58.70
2022-11-27T04:44:35.767Z,61.07
2022-11-27T04:47:03.297Z,129.57
2022-11-27T04:49:30.588Z,65.47
2022-11-27T04:51:57.854Z,52.10
2022-11-27T04:54:25.121Z,51.20
2022-11-27T04:56:52.371Z,49.30
2022-11-27T04:59:19.608Z,44.80
2022-11-27T05:01:46.896Z,43.43
2022-11-27T05:04:14.207Z,46.50
2022-11-27T05:06:41.667Z,46.50
2022-11-27T05:09:09.132Z,45.33
2022-11-27T05:11:36.644Z,44.60
2022-11-27T05:14:17.043Z,41.60
2022-11-27T05:16:50.113Z,43.67
2022-11-27T05:19:19.106Z,40.40
2022-11-27T05:21:47.721Z,42.30
2022-11-27T05:24:19.399Z,70.40
2022-11-27T05:26:46.936Z,87.57
2022-11-27T05:29:14.867Z,89.70
2022-11-27T05:31:42.120Z,83.93
2022-11-27T05:34:09.899Z,77.77
2022-11-27T05:36:37.661Z,66.60
2022-11-27T05:39:07.141Z,65.40
2022-11-27T05:41:35.345Z,72.13
2022-11-27T05:44:02.601Z,69.17
2022-11-27T05:46:30.113Z,69.20
2022-11-27T05:48:57.408Z,67.20
2022-11-27T05:51:25.341Z,61.10
2022-11-27T05:53:52.716Z,57.97
2022-11-27T05:56:19.929Z,51.20
2022-11-27T05:58:48.853Z,95.27
2022-11-27T06:01:17.880Z,44.23
2022-11-27T06:03:45.352Z,36.93
2022-11-27T06:06:18.769Z,35.90
2022-11-27T06:08:47.698Z,38.13
2022-11-27T06:11:21.272Z,38.17
2022-11-27T06:13:50.272Z,32.50
2022-11-27T06:16:20.964Z,34.23
2022-11-27T06:18:53.239Z,35.60
2022-11-27T06:21:21.248Z,32.30
2022-11-27T06:23:49.054Z,31.70
2022-11-27T06:26:26.711Z,31.27
2022-11-27T06:28:56.113Z,41.90
2022-11-27T06:31:29.745Z,34.67
2022-11-27T06:33:57.806Z,33.57
2022-11-27T06:36:34.542Z,34.67
2022-11-27T06:39:03.627Z,33.33
2022-11-27T06:41:30.912Z,32.30
2022-11-27T06:44:00.934Z,32.67
2022-11-27T06:46:30.352Z,30.87
2022-11-27T06:48:58.610Z,31.33
2022-11-27T06:51:28.423Z,32.43
2022-11-27T06:53:56.568Z,30.33
2022-11-27T06:56:26.327Z,31.23
2022-11-27T06:58:55.307Z,32.53
2022-11-27T07:01:23.629Z,30.97
2022-11-27T07:03:51.386Z,30.33
2022-11-27T07:06:21.096Z,31.60
2022-11-27T07:08:48.684Z,31.63
2022-11-27T07:11:21.663Z,33.33
2022-11-27T07:13:50.508Z,30.17
2022-11-27T07:16:18.854Z,29.53
2022-11-27T07:18:52.757Z,29.43
2022-11-27T07:21:20.444Z,29.17
2022-11-27T07:23:48.244Z,29.93
2022-11-27T07:26:18.322Z,28.70
2022-11-27T07:28:46.156Z,30.10
2022-11-27T07:31:15.424Z,30.20
2022-11-27T07:33:42.609Z,30.80
2022-11-27T07:36:18.507Z,30.07
2022-11-27T07:38:46.676Z,30.03
2022-11-27T07:41:14.815Z,28.90
2022-11-27T07:43:43.274Z,33.47
2022-11-27T07:46:16.334Z,51.27
2022-11-27T07:48:43.614Z,35.27
2022-11-27T07:51:13.004Z,30.87
2022-11-27T07:53:41.520Z,30.00
2022-11-27T07:56:11.658Z,26.00
2022-11-27T07:58:39.058Z,25.20
2022-11-27T08:01:11.243Z,24.20
2022-11-27T08:03:39.663Z,23.83
2022-11-27T08:06:26.720Z,39.70
2022-11-27T08:08:56.266Z,31.33
2022-11-27T08:11:30.279Z,48.00
2022-11-27T08:14:00.483Z,57.47
2022-11-27T08:16:28.932Z,44.20
2022-11-27T08:18:56.212Z,48.03
2022-11-27T08:21:24.334Z,75.50
2022-11-27T08:23:51.864Z,99.13
2022-11-27T08:26:19.531Z,49.87
2022-11-27T08:28:47.635Z,35.87
2022-11-27T08:31:16.150Z,28.90
2022-11-27T08:33:43.466Z,30.90
2022-11-27T08:36:16.298Z,38.43
2022-11-27T08:38:45.646Z,41.27
2022-11-27T08:41:13.243Z,42.80
2022-11-27T08:43:40.613Z,35.47
2022-11-27T08:46:08.500Z,41.83
2022-11-27T08:48:36.189Z,35.50
2022-11-27T08:51:08.177Z,28.90
2022-11-27T08:53:37.924Z,65.77
2022-11-27T08:56:10.810Z,54.70
2022-11-27T08:58:38.068Z,28.50
2022-11-27T09:01:11.060Z,27.83
2022-11-27T09:03:38.696Z,28.47
2022-11-27T09:06:16.053Z,46.27
2022-11-27T09:08:44.183Z,33.97
2022-11-27T09:11:12.646Z,27.87
2022-11-27T09:13:40.552Z,29.00
2022-11-27T09:16:11.357Z,34.33
2022-11-27T09:18:38.850Z,42.27
2022-11-27T09:21:09.010Z,41.60
2022-11-27T09:23:39.771Z,29.93
2022-11-27T09:26:12.494Z,32.60
2022-11-27T09:28:41.176Z,48.83
2022-11-27T09:31:11.038Z,28.70
2022-11-27T09:33:40.076Z,36.00
2022-11-27T09:36:10.196Z,62.87
2022-11-27T09:38:38.215Z,37.00
2022-11-27T09:41:39.889Z,31.50
2022-11-27T09:44:13.700Z,29.33
2022-11-27T09:46:44.150Z,32.00
2022-11-27T09:49:23.121Z,40.63
2022-11-27T09:52:05.460Z,29.67
2022-11-27T09:54:50.834Z,30.67
2022-11-27T09:57:27.686Z,33.47
2022-11-27T09:59:56.792Z,32.47
2022-11-27T10:02:45.475Z,30.27
2022-11-27T10:05:23.862Z,26.43
2022-11-27T10:08:06.906Z,25.80
2022-11-27T10:11:03.729Z,24.57
2022-11-27T10:14:03.237Z,23.20
2022-11-27T10:19:43.129Z,20.63
2022-11-27T10:22:22.829Z,23.93
2022-11-27T10:25:18.298Z,24.80
2022-11-27T10:28:11.138Z,26.30
2022-11-27T10:30:48.013Z,26.67
2022-11-27T10:33:20.582Z,22.93
2022-11-27T10:35:49.612Z,23.23
2022-11-27T10:38:26.850Z,21.97
2022-11-27T10:41:47.529Z,18.80
2022-11-27T10:44:20.099Z,24.10
2022-11-27T10:46:49.413Z,18.40
2022-11-27T10:49:16.828Z,18.00
2022-11-27T10:51:44.104Z,23.87
2022-11-27T10:54:27.073Z,17.37
2022-11-27T10:57:20.725Z,15.93
2022-11-27T11:00:10.575Z,15.43
2022-11-27T11:02:40.032Z,14.57
2022-11-27T11:08:19.940Z,15.33
2022-11-27T11:10:52.050Z,12.67
2022-11-27T11:13:43.335Z,13.33
2022-11-27T11:16:19.424Z,8.53
2022-11-27T11:18:57.451Z,9.73
2022-11-27T11:21:42.718Z,9.03
2022-11-27T11:24:31.195Z,9.23
2022-11-27T11:26:59.900Z,10.23
2022-11-27T11:29:41.557Z,10.00
2022-11-27T11:32:29.886Z,9.57
2022-11-27T11:35:05.024Z,8.87
2022-11-27T11:37:48.521Z,12.50
2022-11-27T11:40:16.534Z,12.33
2022-11-27T11:43:00.757Z,8.53
2022-11-27T11:45:35.577Z,12.50
2022-11-27T11:48:27.286Z,13.37
2022-11-27T11:51:08.093Z,15.90
2022-11-27T11:53:37.317Z,14.30
2022-11-27T11:56:34.154Z,17.63
2022-11-27T11:59:10.081Z,34.73
2022-11-27T12:01:40.618Z,18.40
2022-11-27T12:04:26.218Z,17.87
2022-11-27T12:06:59.168Z,16.80
2022-11-27T12:09:38.023Z,19.63
2022-11-27T12:12:26.659Z,16.57
2022-11-27T12:14:53.842Z,7.83
2022-11-27T12:17:59.365Z,15.00
2022-11-27T12:20:50.773Z,13.67
2022-11-27T12:23:18.084Z,9.07
2022-11-27T12:26:10.269Z,10.50
2022-11-27T12:29:00.506Z,9.73
2022-11-27T12:32:09.089Z,24.37
2022-11-27T12:34:39.334Z,15.63
2022-11-27T12:37:44.187Z,21.43
2022-11-27T12:40:44.615Z,13.70
2022-11-27T12:43:33.516Z,20.87
2022-11-27T12:46:24.788Z,15.37
2022-11-27T12:49:04.956Z,17.63
2022-11-27T12:51:35.446Z,21.87
2022-11-27T12:54:41.969Z,15.10
2022-11-27T12:57:17.977Z,20.73
2022-11-27T13:00:05.735Z,13.43
2022-11-27T13:02:44.647Z,12.33
2022-11-27T13:05:25.711Z,24.93
2022-11-27T13:08:04.162Z,29.30
2022-11-27T13:10:43.691Z,28.13
2022-11-27T13:13:32.492Z,25.43
2022-11-27T13:16:07.267Z,26.00
2022-11-27T13:18:40.002Z,19.90
2022-11-27T13:21:13.546Z,22.00
2022-11-27T13:23:40.898Z,19.27
2022-11-27T13:26:15.481Z,24.77
2022-11-27T13:28:54.364Z,20.47
2022-11-27T13:31:26.152Z,13.53
2022-11-27T13:34:18.877Z,24.57
2022-11-27T13:37:02.714Z,25.00
2022-11-27T13:39:37.545Z,54.30
2022-11-27T13:42:12.861Z,37.77
2022-11-27T13:44:52.651Z,47.73
2022-11-27T13:47:24.108Z,41.90
2022-11-27T13:50:11.122Z,37.37
2022-11-27T13:52:49.871Z,40.07
2022-11-27T13:55:26.366Z,53.53
2022-11-27T13:57:55.751Z,57.43
2022-11-27T14:00:42.058Z,42.33
2022-11-27T14:03:23.651Z,33.00
2022-11-27T14:05:51.124Z,31.50
2022-11-27T14:08:28.977Z,31.93
2022-11-27T14:10:56.105Z,41.47
2022-11-27T14:13:36.331Z,57.37
2022-11-27T14:16:09.584Z,59.97
2022-11-27T14:18:38.055Z,59.30
2022-11-27T14:21:05.821Z,80.07
2022-11-27T14:23:36.080Z,50.50
2022-11-27T14:26:03.319Z,69.60
2022-11-27T14:28:32.096Z,54.17
2022-11-27T14:31:01.660Z,60.97
2022-11-27T14:33:33.189Z,65.00
2022-11-27T14:36:22.692Z,46.30
2022-11-27T14:38:50.288Z,65.20
2022-11-27T14:41:20.806Z,66.17
2022-11-27T14:43:48.486Z,70.77
2022-11-27T14:46:20.952Z,49.07
2022-11-27T14:48:57.321Z,50.90
2022-11-27T14:51:33.797Z,61.77
2022-11-27T14:54:07.911Z,59.20
2022-11-27T14:56:39.999Z,59.30
2022-11-27T14:59:07.424Z,66.60
2022-11-27T15:01:37.138Z,55.30
2022-11-27T15:04:35.216Z,54.47
2022-11-27T15:07:06.788Z,48.50
2022-11-27T15:09:36.100Z,42.80
2022-11-27T15:12:23.834Z,49.90
2022-11-27T15:14:59.101Z,49.10
2022-11-27T15:17:32.365Z,65.37
2022-11-27T15:20:01.719Z,51.53
2022-11-27T15:22:29.231Z,66.23
2022-11-27T15:25:05.496Z,43.00
2022-11-27T15:27:44.668Z,44.27
2022-11-27T15:30:14.538Z,53.70
2022-11-27T15:32:51.756Z,64.70
2022-11-27T15:35:33.786Z,65.87
2022-11-27T15:38:08.505Z,74.50
2022-11-27T15:40:40.948Z,79.93
2022-11-27T15:43:17.321Z,71.60
2022-11-27T15:45:45.251Z,71.90
2022-11-27T15:48:16.443Z,68.53
2022-11-27T15:50:48.369Z,63.80
2022-11-27T15:53:18.960Z,58.17
2022-11-27T15:55:46.375Z,57.77
2022-11-27T15:58:13.961Z,53.30
2022-11-27T16:00:41.358Z,47.33
2022-11-27T16:03:08.779Z,47.60
2022-11-27T16:05:36.023Z,52.73
2022-11-27T16:08:03.307Z,127.63
2022-11-27T16:10:30.533Z,113.43
2022-11-27T16:12:59.432Z,91.13
2022-11-27T16:15:30.176Z,73.73
2022-11-27T16:18:00.308Z,74.40
2022-11-27T16:20:28.527Z,69.70
2022-11-27T16:22:56.409Z,71.93
2022-11-27T16:25:23.669Z,71.90
2022-11-27T16:27:51.013Z,71.43
2022-11-27T16:30:20.518Z,76.00
2022-11-27T16:32:47.698Z,82.20
2022-11-27T16:35:14.843Z,77.97
2022-11-27T16:37:42.696Z,81.23
2022-11-27T16:40:10.268Z,82.93
2022-11-27T16:42:37.874Z,76.40
2022-11-27T16:45:05.956Z,81.17
2022-11-27T16:47:35.931Z,80.23
2022-11-27T16:50:03.688Z,84.57
2022-11-27T16:52:31.161Z,82.10
2022-11-27T16:54:58.564Z,82.17
2022-11-27T16:57:26.051Z,62.60
2022-11-27T16:59:53.180Z,66.67
2022-11-27T17:02:20.500Z,65.90
2022-11-27T17:04:47.863Z,71.10
2022-11-27T17:07:15.023Z,67.27
2022-11-27T17:09:42.593Z,72.07
2022-11-27T17:12:09.860Z,78.63
2022-11-27T17:14:37.426Z,81.43
2022-11-27T17:17:06.389Z,73.77
2022-11-27T17:19:36.828Z,65.83
2022-11-27T17:22:04.376Z,72.93
2022-11-27T17:24:35.988Z,62.20
2022-11-27T17:27:03.348Z,73.20
2022-11-27T17:29:33.654Z,61.93
2022-11-27T17:32:01.240Z,59.13
2022-11-27T17:34:28.481Z,53.17
2022-11-27T17:36:58.041Z,60.27
2022-11-27T17:39:25.199Z,79.27
2022-11-27T17:41:52.407Z,58.70
2022-11-27T17:44:19.807Z,70.30
2022-11-27T17:46:50.248Z,61.90
2022-11-27T17:49:17.847Z,71.50
2022-11-27T17:51:45.084Z,60.63
2022-11-27T17:54:12.794Z,77.37
2022-11-27T17:56:40.255Z,73.20
2022-11-27T17:59:08.004Z,78.47
2022-11-27T18:01:35.768Z,62.53
2022-11-27T18:04:04.772Z,65.50
2022-11-27T18:06:33.152Z,83.47
2022-11-27T18:09:00.887Z,74.67
2022-11-27T18:11:32.449Z,66.13
2022-11-27T18:14:00.647Z,75.50
2022-11-27T18:16:34.060Z,66.57
2022-11-27T18:19:05.570Z,66.03
2022-11-27T18:21:33.605Z,60.63
2022-11-27T18:24:22.636Z,72.90
2022-11-27T18:29:41.675Z,70.77
2022-11-27T18:32:10.395Z,97.53
2022-11-27T18:34:38.571Z,72.60
2022-11-27T18:37:06.536Z,66.53
2022-11-27T18:39:35.656Z,67.37
2022-11-27T18:42:05.224Z,110.77
2022-11-27T18:44:33.456Z,102.77
2022-11-27T18:47:01.212Z,68.07
2022-11-27T18:49:28.669Z,71.47
2022-11-27T18:51:56.819Z,85.03
2022-11-27T18:54:24.915Z,80.00
2022-11-27T18:56:52.222Z,65.33
2022-11-27T18:59:19.863Z,69.03
2022-11-27T19:01:47.211Z,72.17
2022-11-27T19:04:15.500Z,64.50
2022-11-27T19:06:43.428Z,63.73
2022-11-27T19:09:12.840Z,67.07
2022-11-27T19:11:41.504Z,70.93
2022-11-27T19:14:10.024Z,68.53
2022-11-27T19:16:44.217Z,75.17
2022-11-27T19:19:52.229Z,80.00
2022-11-27T19:22:01.798Z,77.43
2022-11-27T19:24:29.120Z,72.90
2022-11-27T19:26:58.103Z,65.57
2022-11-27T19:29:25.729Z,67.10
2022-11-27T19:31:55.441Z,62.70
2022-11-27T19:34:23.187Z,68.13
2022-11-27T19:36:50.379Z,65.47
2022-11-27T19:39:17.787Z,58.57
2022-11-27T19:41:45.016Z,61.40
2022-11-27T19:44:13.853Z,59.80
2022-11-27T19:46:41.650Z,65.60
2022-11-27T19:49:16.749Z,61.00
2022-11-27T19:51:44.889Z,82.00
2022-11-27T19:54:14.085Z,81.87
2022-11-27T19:56:43.002Z,70.80
2022-11-27T19:59:11.764Z,79.63
2022-11-27T20:01:40.617Z,85.53
2022-11-27T20:04:10.645Z,101.90
2022-11-27T20:06:38.496Z,121.53
2022-11-27T20:09:06.805Z,102.13
2022-11-27T20:11:35.971Z,89.17
2022-11-27T20:14:04.718Z,85.27
2022-11-27T20:16:33.501Z,80.57
2022-11-27T20:19:02.617Z,73.00
2022-11-27T20:21:29.892Z,92.53
2022-11-27T20:23:57.391Z,80.83
2022-11-27T20:26:27.640Z,80.13
2022-11-27T20:28:55.499Z,77.13
2022-11-27T20:31:32.202Z,87.20
2022-11-27T20:34:01.680Z,89.07
2022-11-27T20:36:30.998Z,80.73
2022-11-27T20:39:00.249Z,72.97
2022-11-27T20:41:28.472Z,99.13
2022-11-27T20:43:58.434Z,75.50
2022-11-27T20:46:26.720Z,87.87
2022-11-27T20:48:55.332Z,84.90
2022-11-27T20:51:27.717Z,85.63
2022-11-27T20:53:56.890Z,91.63
2022-11-27T20:56:25.076Z,77.70
2022-11-27T20:58:52.881Z,79.53
2022-11-27T21:01:24.897Z,78.13
2022-11-27T21:03:53.921Z,78.47
2022-11-27T21:06:24.242Z,72.27
2022-11-27T21:08:51.576Z,80.60
2022-11-27T21:11:25.333Z,76.27
2022-11-27T21:14:01.364Z,81.93
2022-11-27T21:16:32.192Z,86.87
2022-11-27T21:19:01.949Z,84.57
2022-11-27T21:21:29.748Z,86.23
2022-11-27T21:23:57.362Z,84.60
2022-11-27T21:26:25.331Z,77.83
2022-11-27T21:28:52.845Z,75.07
2022-11-27T21:31:23.247Z,77.93
2022-11-27T21:33:55.574Z,71.03
2022-11-27T21:36:25.147Z,80.33
2022-11-27T21:38:52.804Z,91.00
2022-11-27T21:41:20.302Z,85.57
2022-11-27T21:43:48.941Z,72.60
2022-11-27T21:46:19.213Z,64.23
2022-11-27T21:48:47.779Z,89.07
2022-11-27T21:51:15.927Z,74.57
2022-11-27T21:53:44.758Z,56.77
2022-11-27T21:56:14.931Z,56.73
2022-11-27T21:58:42.309Z,55.07
2022-11-27T22:01:15.492Z,55.37
2022-11-27T22:03:43.815Z,57.67
2022-11-27T22:06:14.843Z,59.70
2022-11-27T22:08:44.143Z,58.57
2022-11-27T22:11:14.470Z,57.43
2022-11-27T22:13:42.279Z,62.17
2022-11-27T22:16:15.814Z,54.53
2022-11-27T22:18:43.796Z,58.83
2022-11-27T22:21:12.461Z,52.03
2022-11-27T22:23:41.232Z,58.63
2022-11-27T22:26:12.306Z,73.23
2022-11-27T22:28:39.704Z,61.27
2022-11-27T22:31:15.309Z,54.47
2022-11-27T22:33:43.476Z,61.57
2022-11-27T22:36:19.479Z,60.23
2022-11-27T22:38:49.283Z,55.80
2022-11-27T22:41:17.262Z,57.17
2022-11-27T22:43:45.188Z,61.03
2022-11-27T22:46:25.667Z,59.70
2022-11-27T22:48:58.532Z,62.50
2022-11-27T22:51:27.941Z,74.50
2022-11-27T22:53:55.664Z,76.37
2022-11-27T22:56:23.043Z,70.37
2022-11-27T22:58:58.280Z,61.67
2022-11-27T23:01:33.743Z,59.17
2022-11-27T23:04:01.688Z,83.33
2022-11-27T23:06:29.156Z,72.93
2022-11-27T23:08:56.522Z,72.37
2022-11-27T23:11:26.419Z,64.20
2022-11-27T23:13:56.068Z,70.97
2022-11-27T23:16:23.638Z,66.57
2022-11-27T23:18:51.376Z,66.13
2022-11-27T23:21:21.592Z,72.60
2022-11-27T23:23:49.010Z,77.97
2022-11-27T23:26:18.899Z,68.27
2022-11-27T23:28:47.590Z,69.40
2022-11-27T23:31:33.501Z,68.03
2022-11-27T23:34:02.380Z,66.13
2022-11-27T23:36:31.407Z,79.57
2022-11-27T23:39:04.021Z,66.77
2022-11-27T23:41:32.261Z,71.37
2022-11-27T23:44:01.777Z,64.50
2022-11-27T23:46:30.443Z,65.00
2022-11-27T23:48:59.869Z,65.47
2022-11-27T23:51:30.076Z,61.87
2022-11-27T23:53:57.314Z,66.27
2022-11-27T23:56:27.305Z,65.10
2022-11-27T23:58:58.820Z,58.87
